Capitol Logistics 305


KSEA
Seattle-Tacoma International Airport
Seattle, Washington, US
KRFD
Chicago/Rockford International Airport
Rockford, Illinois, US

Activity Log

Date Flight Route Aircraft Duration
08/27/2020 CPX305 MONTN1 NORMY J90 MCW B763 3h 27m
05/21/2020 CPX305 KSEA/16L MONTN1 NORMY J12 BLUIT J90 MWH J34 HLN J136 BIL J16 MCW J90 JIBOR KRFD/I07 B763 3h 41m
11/26/2019 CPX419 NORMY J12 EPH HLN DPR J16 FSD DBQ B738 3h 45m
07/01/2019 CPX419 NORMY J12 EPH HLN DPR J16 FSD DBQ B752 3h 23m
06/26/2019 CPX305 NORMY J12 EPH HLN DPR J16 FSD DBQ B763 3h 20m
01/22/2019 CPX419 NORMY J12 EPH HLN DPR J16 FSD DBQ B752 3h 08m

Route Details

Aircraft Information
Primary: Boeing 767-300BDSF
Backup: Not Available
Route Data
Distance: 1662nm
Sched. Duration: 4h 29m
Avg. Duration: 3h 27m (-102m)
Times Flown: 6
Recm'd Route: NORMY J12 EPH HLN DPR J16 FSD DBQ
Planned Altitude: 35,000ft
Origin Wx: KSEA 291319Z 16005KT 10SM FEW007 OVC011 11/10 A3020 RMK AO2 DZE19 P0000 T01110100
Dest. Wx: KRFD 291254Z 36014KT 10SM OVC020 05/00 A2992 RMK AO2 SLP138 T00500000
Notes:

Financial History
Total Freight: 488,235lbs
Average Load: 81,373lbs/flt
Fuel Used: 183,165lbs
Avg. Fuel Used: 30,528lbs/flt
Fuel Expense: $205,145
Avg. Fuel Expense: $34,191
Avg. Fuel Cost: $1.12/lbs
Total Gross Income: $668,752
Pilot Pay: $1,284
Total Expenses: $72,537
Total Revenue: $386,475
Average Revenue: $111,458.68